sensor_id;sensor_type;location;lat;lon;timestamp;P1;durP1;ratioP1;P2;durP2;ratioP2
46447;SDS011;32145;50.390;30.778;2023-04-22T00:02:38;16.55;;;6.78;;
46447;SDS011;32145;50.390;30.778;2023-04-22T00:05:35;17.00;;;6.72;;
46447;SDS011;32145;50.390;30.778;2023-04-22T00:08:31;15.38;;;6.90;;
46447;SDS011;32145;50.390;30.778;2023-04-22T00:11:25;14.15;;;6.90;;
46447;SDS011;32145;50.390;30.778;2023-04-22T00:14:19;13.77;;;6.50;;
46447;SDS011;32145;50.390;30.778;2023-04-22T00:17:13;12.77;;;6.72;;
46447;SDS011;32145;50.390;30.778;2023-04-22T00:20:10;17.10;;;6.80;;
46447;SDS011;32145;50.390;30.778;2023-04-22T00:23:07;16.20;;;6.65;;
46447;SDS011;32145;50.390;30.778;2023-04-22T00:26:04;15.73;;;6.25;;
46447;SDS011;32145;50.390;30.778;2023-04-22T00:29:00;16.52;;;6.22;;
46447;SDS011;32145;50.390;30.778;2023-04-22T00:31:57;16.35;;;7.57;;
46447;SDS011;32145;50.390;30.778;2023-04-22T00:34:53;16.65;;;6.45;;
46447;SDS011;32145;50.390;30.778;2023-04-22T00:37:50;14.50;;;6.25;;
46447;SDS011;32145;50.390;30.778;2023-04-22T00:40:46;15.35;;;6.40;;
46447;SDS011;32145;50.390;30.778;2023-04-22T00:43:42;13.45;;;5.93;;
46447;SDS011;32145;50.390;30.778;2023-04-22T00:46:36;19.85;;;6.50;;
46447;SDS011;32145;50.390;30.778;2023-04-22T00:49:31;16.60;;;6.90;;
46447;SDS011;32145;50.390;30.778;2023-04-22T00:52:28;17.63;;;6.85;;
46447;SDS011;32145;50.390;30.778;2023-04-22T00:55:22;21.48;;;7.07;;
46447;SDS011;32145;50.390;30.778;2023-04-22T00:58:16;12.68;;;6.80;;
46447;SDS011;32145;50.390;30.778;2023-04-22T01:01:14;12.93;;;6.38;;
46447;SDS011;32145;50.390;30.778;2023-04-22T01:04:09;15.98;;;7.82;;
46447;SDS011;32145;50.390;30.778;2023-04-22T01:07:03;13.13;;;7.25;;
46447;SDS011;32145;50.390;30.778;2023-04-22T01:10:00;18.45;;;7.88;;
46447;SDS011;32145;50.390;30.778;2023-04-22T01:12:56;14.48;;;6.70;;
46447;SDS011;32145;50.390;30.778;2023-04-22T01:15:51;12.38;;;6.82;;
46447;SDS011;32145;50.390;30.778;2023-04-22T01:18:47;13.50;;;7.18;;
46447;SDS011;32145;50.390;30.778;2023-04-22T01:21:42;11.07;;;6.72;;
46447;SDS011;32145;50.390;30.778;2023-04-22T01:24:37;10.85;;;6.65;;
46447;SDS011;32145;50.390;30.778;2023-04-22T01:27:32;12.40;;;6.75;;
46447;SDS011;32145;50.390;30.778;2023-04-22T01:30:27;12.43;;;7.03;;
46447;SDS011;32145;50.390;30.778;2023-04-22T01:33:21;14.10;;;6.82;;
46447;SDS011;32145;50.390;30.778;2023-04-22T01:36:16;13.20;;;7.25;;
46447;SDS011;32145;50.390;30.778;2023-04-22T01:39:10;11.30;;;6.57;;
46447;SDS011;32145;50.390;30.778;2023-04-22T01:42:06;13.30;;;6.63;;
46447;SDS011;32145;50.390;30.778;2023-04-22T01:45:03;10.90;;;6.80;;
46447;SDS011;32145;50.390;30.778;2023-04-22T01:48:00;10.85;;;6.75;;
46447;SDS011;32145;50.390;30.778;2023-04-22T01:50:56;10.82;;;6.45;;
46447;SDS011;32145;50.390;30.778;2023-04-22T01:53:51;10.80;;;6.35;;
46447;SDS011;32145;50.390;30.778;2023-04-22T01:56:48;11.00;;;6.05;;
46447;SDS011;32145;50.390;30.778;2023-04-22T01:59:46;12.98;;;7.40;;
46447;SDS011;32145;50.390;30.778;2023-04-22T02:02:43;13.05;;;6.38;;
46447;SDS011;32145;50.390;30.778;2023-04-22T02:05:39;12.23;;;6.40;;
46447;SDS011;32145;50.390;30.778;2023-04-22T02:08:35;10.77;;;6.13;;
46447;SDS011;32145;50.390;30.778;2023-04-22T02:11:32;11.82;;;6.18;;
46447;SDS011;32145;50.390;30.778;2023-04-22T02:14:28;11.32;;;6.55;;
46447;SDS011;32145;50.390;30.778;2023-04-22T02:17:26;14.98;;;6.57;;
46447;SDS011;32145;50.390;30.778;2023-04-22T02:20:22;11.77;;;6.65;;
46447;SDS011;32145;50.390;30.778;2023-04-22T02:23:18;13.23;;;6.40;;
46447;SDS011;32145;50.390;30.778;2023-04-22T02:26:14;10.30;;;6.20;;
46447;SDS011;32145;50.390;30.778;2023-04-22T02:29:10;11.13;;;6.32;;
46447;SDS011;32145;50.390;30.778;2023-04-22T02:32:07;13.40;;;6.28;;
46447;SDS011;32145;50.390;30.778;2023-04-22T02:35:02;9.75;;;6.10;;
46447;SDS011;32145;50.390;30.778;2023-04-22T02:37:57;9.65;;;5.82;;
46447;SDS011;32145;50.390;30.778;2023-04-22T02:40:51;9.10;;;5.80;;
46447;SDS011;32145;50.390;30.778;2023-04-22T02:43:46;11.57;;;6.43;;
46447;SDS011;32145;50.390;30.778;2023-04-22T02:46:40;12.85;;;5.82;;
46447;SDS011;32145;50.390;30.778;2023-04-22T02:49:34;10.27;;;6.45;;
46447;SDS011;32145;50.390;30.778;2023-04-22T02:52:30;10.93;;;6.05;;
46447;SDS011;32145;50.390;30.778;2023-04-22T02:55:25;12.13;;;6.22;;
46447;SDS011;32145;50.390;30.778;2023-04-22T02:58:22;11.85;;;6.20;;
46447;SDS011;32145;50.390;30.778;2023-04-22T03:01:18;9.82;;;6.00;;
46447;SDS011;32145;50.390;30.778;2023-04-22T03:04:13;9.43;;;5.60;;
46447;SDS011;32145;50.390;30.778;2023-04-22T03:07:07;9.73;;;6.03;;
46447;SDS011;32145;50.390;30.778;2023-04-22T03:10:03;10.73;;;6.50;;
46447;SDS011;32145;50.390;30.778;2023-04-22T03:12:58;8.70;;;5.82;;
46447;SDS011;32145;50.390;30.778;2023-04-22T03:15:52;9.88;;;5.93;;
46447;SDS011;32145;50.390;30.778;2023-04-22T03:18:47;11.48;;;6.13;;
46447;SDS011;32145;50.390;30.778;2023-04-22T03:21:41;11.55;;;6.38;;
46447;SDS011;32145;50.390;30.778;2023-04-22T03:24:35;10.95;;;6.20;;
46447;SDS011;32145;50.390;30.778;2023-04-22T03:27:33;9.38;;;5.97;;
46447;SDS011;32145;50.390;30.778;2023-04-22T03:30:29;9.93;;;6.15;;
46447;SDS011;32145;50.390;30.778;2023-04-22T03:33:26;13.75;;;6.70;;
46447;SDS011;32145;50.390;30.778;2023-04-22T03:36:22;11.60;;;5.97;;
46447;SDS011;32145;50.390;30.778;2023-04-22T03:39:18;11.15;;;6.40;;
46447;SDS011;32145;50.390;30.778;2023-04-22T03:42:15;10.82;;;6.70;;
46447;SDS011;32145;50.390;30.778;2023-04-22T03:45:12;13.43;;;7.03;;
46447;SDS011;32145;50.390;30.778;2023-04-22T03:48:09;16.10;;;7.65;;
46447;SDS011;32145;50.390;30.778;2023-04-22T03:51:05;18.83;;;9.30;;
46447;SDS011;32145;50.390;30.778;2023-04-22T03:54:02;18.30;;;7.68;;
46447;SDS011;32145;50.390;30.778;2023-04-22T03:56:58;12.85;;;6.75;;
46447;SDS011;32145;50.390;30.778;2023-04-22T03:59:52;9.82;;;6.20;;
46447;SDS011;32145;50.390;30.778;2023-04-22T04:02:48;13.25;;;6.82;;
46447;SDS011;32145;50.390;30.778;2023-04-22T04:05:42;10.30;;;6.72;;
46447;SDS011;32145;50.390;30.778;2023-04-22T04:08:36;12.40;;;6.78;;
46447;SDS011;32145;50.390;30.778;2023-04-22T04:11:31;11.57;;;7.10;;
46447;SDS011;32145;50.390;30.778;2023-04-22T04:14:25;12.05;;;6.93;;
46447;SDS011;32145;50.390;30.778;2023-04-22T04:17:19;13.63;;;6.93;;
46447;SDS011;32145;50.390;30.778;2023-04-22T04:20:15;9.70;;;6.10;;
46447;SDS011;32145;50.390;30.778;2023-04-22T04:23:09;10.18;;;6.72;;
46447;SDS011;32145;50.390;30.778;2023-04-22T04:26:04;10.90;;;6.25;;
46447;SDS011;32145;50.390;30.778;2023-04-22T04:29:00;13.75;;;7.40;;
46447;SDS011;32145;50.390;30.778;2023-04-22T04:31:56;15.73;;;7.93;;
46447;SDS011;32145;50.390;30.778;2023-04-22T04:34:53;16.42;;;8.05;;
46447;SDS011;32145;50.390;30.778;2023-04-22T04:37:50;15.32;;;6.45;;
46447;SDS011;32145;50.390;30.778;2023-04-22T04:40:44;14.68;;;8.25;;
46447;SDS011;32145;50.390;30.778;2023-04-22T04:43:41;12.38;;;7.43;;
46447;SDS011;32145;50.390;30.778;2023-04-22T04:46:37;13.77;;;7.15;;
46447;SDS011;32145;50.390;30.778;2023-04-22T04:49:33;11.60;;;6.45;;
46447;SDS011;32145;50.390;30.778;2023-04-22T04:52:30;10.02;;;6.10;;
46447;SDS011;32145;50.390;30.778;2023-04-22T04:55:25;11.60;;;6.43;;
46447;SDS011;32145;50.390;30.778;2023-04-22T04:58:20;11.88;;;6.30;;
46447;SDS011;32145;50.390;30.778;2023-04-22T05:01:14;11.35;;;6.55;;
46447;SDS011;32145;50.390;30.778;2023-04-22T05:04:08;10.82;;;6.30;;
46447;SDS011;32145;50.390;30.778;2023-04-22T05:07:03;10.38;;;5.75;;
46447;SDS011;32145;50.390;30.778;2023-04-22T05:09:58;10.35;;;6.00;;
46447;SDS011;32145;50.390;30.778;2023-04-22T05:12:55;9.30;;;5.72;;
46447;SDS011;32145;50.390;30.778;2023-04-22T05:15:49;9.07;;;5.85;;
46447;SDS011;32145;50.390;30.778;2023-04-22T05:18:43;10.85;;;6.40;;
46447;SDS011;32145;50.390;30.778;2023-04-22T05:21:37;12.20;;;6.38;;
46447;SDS011;32145;50.390;30.778;2023-04-22T05:24:32;10.23;;;5.68;;
46447;SDS011;32145;50.390;30.778;2023-04-22T05:27:26;15.05;;;6.00;;
46447;SDS011;32145;50.390;30.778;2023-04-22T05:30:22;14.15;;;5.95;;
46447;SDS011;32145;50.390;30.778;2023-04-22T05:33:16;10.50;;;5.82;;
46447;SDS011;32145;50.390;30.778;2023-04-22T05:36:10;9.23;;;5.95;;
46447;SDS011;32145;50.390;30.778;2023-04-22T05:39:05;12.77;;;6.13;;
46447;SDS011;32145;50.390;30.778;2023-04-22T05:41:59;11.77;;;6.50;;
46447;SDS011;32145;50.390;30.778;2023-04-22T05:44:54;9.63;;;6.20;;
46447;SDS011;32145;50.390;30.778;2023-04-22T05:47:50;12.20;;;6.18;;
46447;SDS011;32145;50.390;30.778;2023-04-22T05:50:46;9.23;;;5.80;;
46447;SDS011;32145;50.390;30.778;2023-04-22T05:53:42;10.77;;;6.00;;
46447;SDS011;32145;50.390;30.778;2023-04-22T05:56:39;9.57;;;5.75;;
46447;SDS011;32145;50.390;30.778;2023-04-22T05:59:33;10.45;;;6.05;;
46447;SDS011;32145;50.390;30.778;2023-04-22T06:02:27;13.38;;;6.53;;
46447;SDS011;32145;50.390;30.778;2023-04-22T06:05:23;9.65;;;6.20;;
46447;SDS011;32145;50.390;30.778;2023-04-22T06:08:17;11.13;;;6.85;;
46447;SDS011;32145;50.390;30.778;2023-04-22T06:11:11;9.73;;;5.72;;
46447;SDS011;32145;50.390;30.778;2023-04-22T06:14:06;11.27;;;6.05;;
46447;SDS011;32145;50.390;30.778;2023-04-22T06:17:00;9.60;;;6.15;;
46447;SDS011;32145;50.390;30.778;2023-04-22T06:19:54;8.38;;;5.60;;
46447;SDS011;32145;50.390;30.778;2023-04-22T06:22:50;10.50;;;5.68;;
46447;SDS011;32145;50.390;30.778;2023-04-22T06:25:47;9.70;;;5.20;;
46447;SDS011;32145;50.390;30.778;2023-04-22T06:28:43;11.93;;;5.80;;
46447;SDS011;32145;50.390;30.778;2023-04-22T06:31:39;9.55;;;5.72;;
46447;SDS011;32145;50.390;30.778;2023-04-22T06:34:33;9.95;;;6.15;;
46447;SDS011;32145;50.390;30.778;2023-04-22T06:37:28;9.43;;;5.53;;
46447;SDS011;32145;50.390;30.778;2023-04-22T06:40:26;12.77;;;6.07;;
46447;SDS011;32145;50.390;30.778;2023-04-22T06:43:22;11.27;;;6.35;;
46447;SDS011;32145;50.390;30.778;2023-04-22T06:46:18;11.68;;;6.13;;
46447;SDS011;32145;50.390;30.778;2023-04-22T06:49:15;11.43;;;6.47;;
46447;SDS011;32145;50.390;30.778;2023-04-22T06:52:11;9.52;;;6.05;;
46447;SDS011;32145;50.390;30.778;2023-04-22T06:55:05;8.88;;;5.68;;
46447;SDS011;32145;50.390;30.778;2023-04-22T06:58:01;9.18;;;5.60;;
46447;SDS011;32145;50.390;30.778;2023-04-22T07:00:57;9.43;;;5.70;;
46447;SDS011;32145;50.390;30.778;2023-04-22T07:03:52;9.60;;;5.47;;
46447;SDS011;32145;50.390;30.778;2023-04-22T07:06:46;9.25;;;5.60;;
46447;SDS011;32145;50.390;30.778;2023-04-22T07:09:40;10.55;;;5.97;;
46447;SDS011;32145;50.390;30.778;2023-04-22T07:12:34;10.60;;;5.80;;
46447;SDS011;32145;50.390;30.778;2023-04-22T07:15:32;9.15;;;5.72;;
46447;SDS011;32145;50.390;30.778;2023-04-22T07:18:26;9.18;;;5.53;;
46447;SDS011;32145;50.390;30.778;2023-04-22T07:21:21;11.13;;;5.93;;
46447;SDS011;32145;50.390;30.778;2023-04-22T07:24:15;9.38;;;5.75;;
46447;SDS011;32145;50.390;30.778;2023-04-22T07:27:09;10.30;;;6.30;;
46447;SDS011;32145;50.390;30.778;2023-04-22T07:30:04;10.18;;;5.57;;
46447;SDS011;32145;50.390;30.778;2023-04-22T07:33:03;11.82;;;5.70;;
46447;SDS011;32145;50.390;30.778;2023-04-22T07:35:59;10.00;;;5.82;;
46447;SDS011;32145;50.390;30.778;2023-04-22T07:38:54;9.52;;;5.72;;
46447;SDS011;32145;50.390;30.778;2023-04-22T07:41:48;11.25;;;6.15;;
46447;SDS011;32145;50.390;30.778;2023-04-22T07:44:43;9.35;;;5.65;;
46447;SDS011;32145;50.390;30.778;2023-04-22T07:47:37;8.45;;;5.57;;
46447;SDS011;32145;50.390;30.778;2023-04-22T07:50:35;9.20;;;5.97;;
46447;SDS011;32145;50.390;30.778;2023-04-22T07:53:29;9.00;;;5.90;;
46447;SDS011;32145;50.390;30.778;2023-04-22T07:56:23;10.30;;;5.22;;
46447;SDS011;32145;50.390;30.778;2023-04-22T07:59:18;9.10;;;5.60;;
46447;SDS011;32145;50.390;30.778;2023-04-22T08:02:12;10.88;;;5.45;;
46447;SDS011;32145;50.390;30.778;2023-04-22T08:05:06;11.65;;;5.35;;
46447;SDS011;32145;50.390;30.778;2023-04-22T08:08:02;11.05;;;5.45;;
46447;SDS011;32145;50.390;30.778;2023-04-22T08:10:56;9.73;;;5.78;;
46447;SDS011;32145;50.390;30.778;2023-04-22T08:13:50;10.13;;;4.97;;
46447;SDS011;32145;50.390;30.778;2023-04-22T08:16:45;8.40;;;4.32;;
46447;SDS011;32145;50.390;30.778;2023-04-22T08:19:39;7.45;;;4.95;;
46447;SDS011;32145;50.390;30.778;2023-04-22T08:22:33;10.30;;;5.53;;
46447;SDS011;32145;50.390;30.778;2023-04-22T08:25:29;9.23;;;5.10;;
46447;SDS011;32145;50.390;30.778;2023-04-22T08:28:23;8.43;;;5.03;;
46447;SDS011;32145;50.390;30.778;2023-04-22T08:31:18;9.15;;;4.85;;
46447;SDS011;32145;50.390;30.778;2023-04-22T08:34:12;9.55;;;5.10;;
46447;SDS011;32145;50.390;30.778;2023-04-22T08:37:06;6.82;;;4.50;;
46447;SDS011;32145;50.390;30.778;2023-04-22T08:40:01;9.02;;;4.70;;
46447;SDS011;32145;50.390;30.778;2023-04-22T08:42:56;10.80;;;4.88;;
46447;SDS011;32145;50.390;30.778;2023-04-22T08:45:50;7.75;;;4.57;;
46447;SDS011;32145;50.390;30.778;2023-04-22T08:48:45;8.18;;;4.70;;
46447;SDS011;32145;50.390;30.778;2023-04-22T08:51:40;7.28;;;4.40;;
46447;SDS011;32145;50.390;30.778;2023-04-22T08:54:35;10.38;;;4.72;;
46447;SDS011;32145;50.390;30.778;2023-04-22T08:57:30;8.20;;;4.65;;
46447;SDS011;32145;50.390;30.778;2023-04-22T09:00:26;9.73;;;5.03;;
46447;SDS011;32145;50.390;30.778;2023-04-22T09:03:20;9.73;;;4.82;;
46447;SDS011;32145;50.390;30.778;2023-04-22T09:06:15;9.98;;;4.97;;
46447;SDS011;32145;50.390;30.778;2023-04-22T09:09:12;8.50;;;4.97;;
46447;SDS011;32145;50.390;30.778;2023-04-22T09:12:06;7.70;;;4.68;;
46447;SDS011;32145;50.390;30.778;2023-04-22T09:14:50;10.07;;;4.57;;
46447;SDS011;32145;50.390;30.778;2023-04-22T09:17:49;7.22;;;4.57;;
46447;SDS011;32145;50.390;30.778;2023-04-22T09:20:45;8.90;;;4.57;;
46447;SDS011;32145;50.390;30.778;2023-04-22T09:23:44;8.50;;;4.28;;
46447;SDS011;32145;50.390;30.778;2023-04-22T09:26:38;6.25;;;4.40;;
46447;SDS011;32145;50.390;30.778;2023-04-22T09:29:32;6.60;;;3.95;;
46447;SDS011;32145;50.390;30.778;2023-04-22T09:32:27;6.32;;;3.95;;
46447;SDS011;32145;50.390;30.778;2023-04-22T09:35:23;5.82;;;4.20;;
46447;SDS011;32145;50.390;30.778;2023-04-22T09:38:20;7.50;;;4.10;;
46447;SDS011;32145;50.390;30.778;2023-04-22T09:41:14;6.65;;;4.07;;
46447;SDS011;32145;50.390;30.778;2023-04-22T09:44:09;5.63;;;4.13;;
46447;SDS011;32145;50.390;30.778;2023-04-22T09:47:04;7.10;;;4.10;;
46447;SDS011;32145;50.390;30.778;2023-04-22T09:49:58;6.28;;;4.00;;
46447;SDS011;32145;50.390;30.778;2023-04-22T09:53:00;8.60;;;3.85;;
46447;SDS011;32145;50.390;30.778;2023-04-22T09:55:58;6.55;;;4.22;;
46447;SDS011;32145;50.390;30.778;2023-04-22T09:58:52;7.38;;;3.83;;
46447;SDS011;32145;50.390;30.778;2023-04-22T10:01:47;6.97;;;4.18;;
46447;SDS011;32145;50.390;30.778;2023-04-22T10:04:42;12.10;;;7.90;;
46447;SDS011;32145;50.390;30.778;2023-04-22T10:07:36;6.93;;;4.70;;
46447;SDS011;32145;50.390;30.778;2023-04-22T10:10:33;7.78;;;4.18;;
46447;SDS011;32145;50.390;30.778;2023-04-22T10:13:29;7.40;;;3.95;;
46447;SDS011;32145;50.390;30.778;2023-04-22T10:16:26;6.28;;;4.22;;
46447;SDS011;32145;50.390;30.778;2023-04-22T10:19:25;5.60;;;3.53;;
46447;SDS011;32145;50.390;30.778;2023-04-22T10:22:20;8.05;;;3.80;;
46447;SDS011;32145;50.390;30.778;2023-04-22T10:25:20;5.15;;;3.45;;
46447;SDS011;32145;50.390;30.778;2023-04-22T10:28:15;5.53;;;4.00;;
46447;SDS011;32145;50.390;30.778;2023-04-22T10:31:18;10.38;;;3.80;;
46447;SDS011;32145;50.390;30.778;2023-04-22T10:34:14;8.50;;;3.70;;
46447;SDS011;32145;50.390;30.778;2023-04-22T10:37:08;6.25;;;3.85;;
46447;SDS011;32145;50.390;30.778;2023-04-22T10:40:08;5.90;;;3.60;;
46447;SDS011;32145;50.390;30.778;2023-04-22T10:43:04;6.63;;;3.50;;
46447;SDS011;32145;50.390;30.778;2023-04-22T10:45:59;5.72;;;3.67;;
46447;SDS011;32145;50.390;30.778;2023-04-22T10:48:55;5.43;;;3.70;;
46447;SDS011;32145;50.390;30.778;2023-04-22T10:51:50;8.18;;;3.97;;
46447;SDS011;32145;50.390;30.778;2023-04-22T10:54:55;6.88;;;4.10;;
46447;SDS011;32145;50.390;30.778;2023-04-22T10:57:52;5.35;;;3.58;;
46447;SDS011;32145;50.390;30.778;2023-04-22T11:00:47;9.50;;;3.80;;
46447;SDS011;32145;50.390;30.778;2023-04-22T11:03:43;6.43;;;3.75;;
46447;SDS011;32145;50.390;30.778;2023-04-22T11:06:37;8.05;;;3.55;;
46447;SDS011;32145;50.390;30.778;2023-04-22T11:09:37;5.20;;;3.33;;
46447;SDS011;32145;50.390;30.778;2023-04-22T11:12:41;6.35;;;3.97;;
46447;SDS011;32145;50.390;30.778;2023-04-22T11:15:37;7.15;;;3.50;;
46447;SDS011;32145;50.390;30.778;2023-04-22T11:18:32;7.63;;;3.28;;
46447;SDS011;32145;50.390;30.778;2023-04-22T11:21:27;6.80;;;3.50;;
46447;SDS011;32145;50.390;30.778;2023-04-22T11:24:24;6.25;;;3.38;;
46447;SDS011;32145;50.390;30.778;2023-04-22T11:27:18;6.50;;;3.72;;
46447;SDS011;32145;50.390;30.778;2023-04-22T11:30:13;5.50;;;3.50;;
46447;SDS011;32145;50.390;30.778;2023-04-22T11:33:09;8.40;;;3.78;;
46447;SDS011;32145;50.390;30.778;2023-04-22T11:36:08;8.40;;;3.47;;
46447;SDS011;32145;50.390;30.778;2023-04-22T11:39:08;4.78;;;3.40;;
46447;SDS011;32145;50.390;30.778;2023-04-22T11:42:03;6.05;;;3.53;;
46447;SDS011;32145;50.390;30.778;2023-04-22T11:45:00;7.85;;;3.58;;
46447;SDS011;32145;50.390;30.778;2023-04-22T11:47:56;6.03;;;3.80;;
46447;SDS011;32145;50.390;30.778;2023-04-22T11:51:06;5.20;;;3.58;;
46447;SDS011;32145;50.390;30.778;2023-04-22T11:54:03;6.85;;;3.63;;
46447;SDS011;32145;50.390;30.778;2023-04-22T11:57:00;5.63;;;3.40;;
46447;SDS011;32145;50.390;30.778;2023-04-22T11:59:56;7.90;;;3.60;;
46447;SDS011;32145;50.390;30.778;2023-04-22T12:02:54;6.47;;;3.70;;
46447;SDS011;32145;50.390;30.778;2023-04-22T12:05:52;6.82;;;3.55;;
46447;SDS011;32145;50.390;30.778;2023-04-22T12:08:48;6.75;;;3.30;;
46447;SDS011;32145;50.390;30.778;2023-04-22T12:11:43;6.25;;;3.30;;
46447;SDS011;32145;50.390;30.778;2023-04-22T12:14:43;6.45;;;3.58;;
46447;SDS011;32145;50.390;30.778;2023-04-22T12:17:40;9.07;;;3.55;;
46447;SDS011;32145;50.390;30.778;2023-04-22T12:20:39;4.85;;;3.20;;
46447;SDS011;32145;50.390;30.778;2023-04-22T14:01:07;5.03;;;3.17;;
46447;SDS011;32145;50.390;30.778;2023-04-22T14:04:01;5.28;;;3.30;;
46447;SDS011;32145;50.390;30.778;2023-04-22T14:06:56;11.40;;;3.88;;
46447;SDS011;32145;50.390;30.778;2023-04-22T14:35:21;4.30;;;3.10;;
46447;SDS011;32145;50.390;30.778;2023-04-22T15:06:17;4.50;;;3.13;;
46447;SDS011;32145;50.390;30.778;2023-04-22T15:09:12;5.85;;;3.00;;
46447;SDS011;32145;50.390;30.778;2023-04-22T15:12:06;5.22;;;3.30;;
46447;SDS011;32145;50.390;30.778;2023-04-22T15:15:00;5.43;;;3.28;;
46447;SDS011;32145;50.390;30.778;2023-04-22T15:17:54;8.43;;;3.20;;
46447;SDS011;32145;50.390;30.778;2023-04-22T15:20:49;5.05;;;2.97;;
46447;SDS011;32145;50.390;30.778;2023-04-22T15:23:44;5.70;;;3.00;;
46447;SDS011;32145;50.390;30.778;2023-04-22T15:26:38;5.57;;;2.63;;
46447;SDS011;32145;50.390;30.778;2023-04-22T15:29:33;4.53;;;2.83;;
46447;SDS011;32145;50.390;30.778;2023-04-22T15:32:27;5.38;;;3.10;;
46447;SDS011;32145;50.390;30.778;2023-04-22T15:35:22;4.63;;;2.95;;
46447;SDS011;32145;50.390;30.778;2023-04-22T15:38:16;4.35;;;2.75;;
46447;SDS011;32145;50.390;30.778;2023-04-22T15:41:12;4.60;;;2.97;;
46447;SDS011;32145;50.390;30.778;2023-04-22T15:44:06;6.03;;;2.85;;
46447;SDS011;32145;50.390;30.778;2023-04-22T15:47:00;6.97;;;3.15;;
46447;SDS011;32145;50.390;30.778;2023-04-22T15:49:54;4.70;;;3.03;;
46447;SDS011;32145;50.390;30.778;2023-04-22T15:52:49;6.00;;;3.67;;
46447;SDS011;32145;50.390;30.778;2023-04-22T15:55:43;7.80;;;4.68;;
46447;SDS011;32145;50.390;30.778;2023-04-22T15:58:39;8.02;;;4.18;;
46447;SDS011;32145;50.390;30.778;2023-04-22T16:01:33;7.55;;;4.57;;
46447;SDS011;32145;50.390;30.778;2023-04-22T16:04:28;8.38;;;4.32;;
46447;SDS011;32145;50.390;30.778;2023-04-22T16:07:22;7.63;;;3.95;;
46447;SDS011;32145;50.390;30.778;2023-04-22T16:10:16;7.30;;;4.47;;
46447;SDS011;32145;50.390;30.778;2023-04-22T16:13:10;7.32;;;5.05;;
46447;SDS011;32145;50.390;30.778;2023-04-22T16:16:06;6.25;;;4.20;;
46447;SDS011;32145;50.390;30.778;2023-04-22T16:19:03;5.68;;;3.88;;
46447;SDS011;32145;50.390;30.778;2023-04-22T16:21:59;8.52;;;5.05;;
46447;SDS011;32145;50.390;30.778;2023-04-22T16:24:56;6.38;;;4.13;;
46447;SDS011;32145;50.390;30.778;2023-04-22T16:27:52;8.10;;;4.70;;
46447;SDS011;32145;50.390;30.778;2023-04-22T16:30:48;6.63;;;4.25;;
46447;SDS011;32145;50.390;30.778;2023-04-22T16:33:46;6.72;;;3.97;;
46447;SDS011;32145;50.390;30.778;2023-04-22T16:36:42;7.05;;;4.00;;
46447;SDS011;32145;50.390;30.778;2023-04-22T16:39:39;7.53;;;3.80;;
46447;SDS011;32145;50.390;30.778;2023-04-22T16:42:35;6.88;;;3.67;;
46447;SDS011;32145;50.390;30.778;2023-04-22T16:45:31;8.02;;;3.92;;
46447;SDS011;32145;50.390;30.778;2023-04-22T16:48:27;6.88;;;3.92;;
46447;SDS011;32145;50.390;30.778;2023-04-22T16:51:25;6.40;;;4.05;;
46447;SDS011;32145;50.390;30.778;2023-04-22T16:54:21;8.32;;;5.05;;
46447;SDS011;32145;50.390;30.778;2023-04-22T16:57:18;7.57;;;4.45;;
46447;SDS011;32145;50.390;30.778;2023-04-22T17:00:14;7.70;;;4.78;;
46447;SDS011;32145;50.390;30.778;2023-04-22T17:03:11;8.23;;;4.43;;
46447;SDS011;32145;50.390;30.778;2023-04-22T17:06:07;7.82;;;4.25;;
46447;SDS011;32145;50.390;30.778;2023-04-22T17:09:03;7.95;;;4.40;;
46447;SDS011;32145;50.390;30.778;2023-04-22T17:11:57;10.15;;;4.82;;
46447;SDS011;32145;50.390;30.778;2023-04-22T17:14:51;10.20;;;5.38;;
46447;SDS011;32145;50.390;30.778;2023-04-22T17:17:46;10.60;;;5.70;;
46447;SDS011;32145;50.390;30.778;2023-04-22T17:20:42;9.02;;;6.10;;
46447;SDS011;32145;50.390;30.778;2023-04-22T17:23:38;9.13;;;6.13;;
46447;SDS011;32145;50.390;30.778;2023-04-22T17:26:36;10.07;;;6.43;;
46447;SDS011;32145;50.390;30.778;2023-04-22T17:29:33;11.13;;;6.25;;
46447;SDS011;32145;50.390;30.778;2023-04-22T17:32:29;13.13;;;7.00;;
46447;SDS011;32145;50.390;30.778;2023-04-22T17:35:25;9.40;;;6.93;;
46447;SDS011;32145;50.390;30.778;2023-04-22T17:38:22;14.13;;;6.75;;
46447;SDS011;32145;50.390;30.778;2023-04-22T17:41:18;10.85;;;6.65;;
46447;SDS011;32145;50.390;30.778;2023-04-22T17:44:16;12.07;;;7.47;;
46447;SDS011;32145;50.390;30.778;2023-04-22T17:47:12;19.63;;;9.70;;
46447;SDS011;32145;50.390;30.778;2023-04-22T17:50:08;14.57;;;10.05;;
46447;SDS011;32145;50.390;30.778;2023-04-22T17:53:03;15.52;;;10.30;;
46447;SDS011;32145;50.390;30.778;2023-04-22T17:55:58;13.43;;;8.57;;
46447;SDS011;32145;50.390;30.778;2023-04-22T17:58:52;16.27;;;10.60;;
46447;SDS011;32145;50.390;30.778;2023-04-22T18:01:48;15.45;;;9.80;;
46447;SDS011;32145;50.390;30.778;2023-04-22T18:04:44;18.80;;;13.02;;
46447;SDS011;32145;50.390;30.778;2023-04-22T18:07:40;22.70;;;14.23;;
46447;SDS011;32145;50.390;30.778;2023-04-22T18:10:37;20.55;;;13.48;;
46447;SDS011;32145;50.390;30.778;2023-04-22T18:13:33;18.48;;;12.43;;
46447;SDS011;32145;50.390;30.778;2023-04-22T18:16:29;20.98;;;13.15;;
46447;SDS011;32145;50.390;30.778;2023-04-22T18:19:27;14.70;;;10.98;;
46447;SDS011;32145;50.390;30.778;2023-04-22T18:22:24;13.57;;;9.38;;
46447;SDS011;32145;50.390;30.778;2023-04-22T18:25:21;12.13;;;8.18;;
46447;SDS011;32145;50.390;30.778;2023-04-22T18:28:17;13.85;;;7.93;;
46447;SDS011;32145;50.390;30.778;2023-04-22T18:31:13;12.23;;;7.22;;
46447;SDS011;32145;50.390;30.778;2023-04-22T18:34:10;10.93;;;7.03;;
46447;SDS011;32145;50.390;30.778;2023-04-22T18:37:07;8.38;;;5.55;;
46447;SDS011;32145;50.390;30.778;2023-04-22T18:40:04;8.43;;;5.28;;
46447;SDS011;32145;50.390;30.778;2023-04-22T18:43:01;8.15;;;5.55;;
46447;SDS011;32145;50.390;30.778;2023-04-22T18:45:58;8.45;;;5.60;;
46447;SDS011;32145;50.390;30.778;2023-04-22T18:48:54;7.85;;;5.35;;
46447;SDS011;32145;50.390;30.778;2023-04-22T18:51:50;6.47;;;4.72;;
46447;SDS011;32145;50.390;30.778;2023-04-22T18:54:48;7.63;;;4.45;;
46447;SDS011;32145;50.390;30.778;2023-04-22T18:57:44;6.63;;;4.53;;
46447;SDS011;32145;50.390;30.778;2023-04-22T19:00:41;6.78;;;4.40;;
46447;SDS011;32145;50.390;30.778;2023-04-22T19:03:37;5.88;;;4.32;;
46447;SDS011;32145;50.390;30.778;2023-04-22T19:06:33;7.88;;;4.65;;
46447;SDS011;32145;50.390;30.778;2023-04-22T19:09:30;8.05;;;5.40;;
46447;SDS011;32145;50.390;30.778;2023-04-22T19:12:25;9.13;;;5.00;;
46447;SDS011;32145;50.390;30.778;2023-04-22T19:15:20;7.30;;;4.55;;
46447;SDS011;32145;50.390;30.778;2023-04-22T19:18:14;8.43;;;5.05;;
46447;SDS011;32145;50.390;30.778;2023-04-22T19:21:08;8.13;;;4.60;;
46447;SDS011;32145;50.390;30.778;2023-04-22T19:24:03;7.13;;;4.68;;
46447;SDS011;32145;50.390;30.778;2023-04-22T19:26:58;9.52;;;4.93;;
46447;SDS011;32145;50.390;30.778;2023-04-22T19:29:53;9.48;;;4.70;;
46447;SDS011;32145;50.390;30.778;2023-04-22T19:32:47;5.97;;;4.57;;
46447;SDS011;32145;50.390;30.778;2023-04-22T19:35:44;7.22;;;4.53;;
46447;SDS011;32145;50.390;30.778;2023-04-22T19:38:40;8.05;;;4.97;;
46447;SDS011;32145;50.390;30.778;2023-04-22T19:41:37;8.85;;;6.13;;
46447;SDS011;32145;50.390;30.778;2023-04-22T19:44:33;10.35;;;6.97;;
46447;SDS011;32145;50.390;30.778;2023-04-22T19:47:31;15.73;;;6.70;;